Pagrindinis puslapis
METAR-TAF:

METAR-TAF

Oro uostai :

Ventspilio oro uostas

Ventspilis, Latvija

platuma: 57-21-28N, ilguma: 021-32-39E, Aukštis: 6 m

Dabartinis oras

Ataskaita buvo paskelbta 33 minutes, ne 20:20 UTC
Vėjas 4 kt iš Šiaurės Vakarų
Temperatūra 8°C
Drėgmė 93%
Slėgis 1012 hPa
Matomumas 10 km arba daugiau
nėra debesų žemiau 1500 m ir nėra kamuolinių lietaus debesų

METAR: EVVA 222020Z AUTO 31004KT CAVOK 08/07 Q1012

Laikas: 23:53 (20:53 UTC)

Prognozė

Ataskaita buvo paskelbta 9 valandos ir 46 minutes, ne 11:07 UTC
Prognozė galioja nuo 22 metu 12 UTC su 22 metu 21 UTC
Vėjas 7 kt iš Šiaurės
Matomumas 10 km arba daugiau
nėra debesų žemiau 1500 m ir nėra kamuolinių lietaus debesų

TAF: EVVA 221107Z 2212/2221 36007KT CAVOK

Orai ataskaitas ir orų prognozės (METAR, TAF).

turimą stotys yra geltonos ir raudonos taškus žemėlapyje.

Perkelti pele per norėdami pamatyti stoties vardą.

Tada spustelėkite, norėdami matyti oro stebėjimo ir prognozės.

Norėdami pakeisti žemėlapį: spustelėkite ant žalios mygtukų su juodo kryžiaus žemyn,; žalią mygtuką su brūkšneliu, jei norite nutolinti; arba žalių rodyklių gretimoms žemėlapius.


METAR-TAF: